Time;durP1;ratioP1;P1;durP2;ratioP2;P2;SDS_P1;SDS_P2;PMS_P1;PMS_P2;Temp;Humidity;BMP_temperature;BMP_pressure;BME280_temperature;BME280_humidity;BME280_pressure;Samples;Min_cycle;Max_cycle;Signal;HPM_P1;HPM_P2
2021/03/02 00:05:00;;;;;;;8.13;7.33;;;7.00;30.00;;;;;;10397433;28;20651;-74
2021/03/02 00:10:04;;;;;;;8.13;6.87;;;7.00;30.00;;;;;;10394104;28;20313;-73
2021/03/02 00:15:14;;;;;;;6.53;5.97;;;6.90;30.10;;;;;;10400755;28;20232;-74
2021/03/02 00:20:17;;;;;;;8.37;7.20;;;6.90;30.30;;;;;;10399705;28;20787;-74
2021/03/02 00:25:20;;;;;;;8.37;7.37;;;6.90;30.10;;;;;;10398697;28;20272;-74
2021/03/02 00:30:24;;;;;;;8.00;7.03;;;6.80;30.10;;;;;;10399569;28;20246;-74
2021/03/02 00:35:39;;;;;;;8.50;7.60;;;6.70;30.30;;;;;;10398394;28;20323;-74
2021/03/02 00:40:41;;;;;;;8.13;7.33;;;6.60;30.00;;;;;;10398094;28;20218;-74
2021/03/02 00:45:44;;;;;;;6.63;5.93;;;6.60;30.10;;;;;;10394711;28;20218;-74
2021/03/02 00:50:47;;;;;;;7.90;7.10;;;6.50;30.20;;;;;;10398632;28;20226;-74
2021/03/02 00:55:50;;;;;;;8.67;7.77;;;6.40;30.20;;;;;;10398255;28;20241;-74
2021/03/02 01:00:53;;;;;;;8.90;8.00;;;6.30;30.30;;;;;;10389264;28;20767;-74
2021/03/02 01:05:55;;;;;;;8.57;7.50;;;6.30;30.70;;;;;;10397376;28;20244;-74
2021/03/02 01:10:58;;;;;;;9.10;7.50;;;6.20;30.80;;;;;;10394643;28;20647;-74
2021/03/02 01:16:01;;;;;;;8.37;7.47;;;6.20;30.90;;;;;;10398236;28;20226;-74
2021/03/02 01:21:04;;;;;;;8.30;7.50;;;6.10;31.10;;;;;;10396603;28;20222;-74
2021/03/02 01:26:06;;;;;;;8.40;7.50;;;6.10;31.00;;;;;;10394699;28;20491;-74
2021/03/02 01:31:09;;;;;;;8.23;7.27;;;6.10;30.90;;;;;;10394247;28;20309;-74
2021/03/02 01:36:12;;;;;;;8.90;7.80;;;6.00;31.10;;;;;;10401257;28;20646;-74
2021/03/02 01:41:15;;;;;;;8.03;7.23;;;6.00;31.10;;;;;;10398560;28;20634;-74
2021/03/02 01:46:18;;;;;;;10.93;8.80;;;6.00;31.20;;;;;;10393467;28;20702;-74
2021/03/02 01:51:20;;;;;;;9.27;8.27;;;5.90;31.50;;;;;;10398434;28;20303;-74
2021/03/02 01:56:23;;;;;;;12.77;9.17;;;5.90;31.50;;;;;;10396292;28;20242;-74
2021/03/02 02:01:26;;;;;;;11.50;8.67;;;5.90;31.50;;;;;;10393474;28;20312;-74
2021/03/02 02:06:37;;;;;;;10.07;9.07;;;5.90;31.50;;;;;;10399793;28;20229;-74
2021/03/02 02:11:47;;;;;;;9.30;8.30;;;5.90;32.20;;;;;;10400499;28;20320;-74
2021/03/02 02:16:55;;;;;;;11.53;9.57;;;5.90;32.20;;;;;;10401087;28;20308;-74
2021/03/02 02:22:08;;;;;;;12.67;9.90;;;5.90;32.20;;;;;;10403320;28;20321;-74
2021/03/02 02:27:12;;;;;;;11.77;9.23;;;5.90;32.70;;;;;;10395979;28;20272;-74
2021/03/02 02:32:15;;;;;;;10.33;8.67;;;5.80;31.90;;;;;;10402771;28;20242;-74
2021/03/02 02:37:19;;;;;;;11.90;9.60;;;5.80;31.70;;;;;;10405348;28;20373;-74
2021/03/02 02:42:23;;;;;;;10.03;8.90;;;5.80;31.90;;;;;;10402916;28;20354;-74
2021/03/02 02:47:26;;;;;;;13.50;10.07;;;5.80;32.10;;;;;;10404877;28;20710;-74
2021/03/02 02:52:29;;;;;;;11.57;9.43;;;5.80;32.00;;;;;;10400119;28;20234;-74
2021/03/02 02:57:35;;;;;;;10.80;9.07;;;5.80;32.10;;;;;;10403431;28;20230;-74
2021/03/02 03:02:43;;;;;;;11.20;9.13;;;5.70;32.30;;;;;;10404303;28;20317;-74
2021/03/02 03:07:50;;;;;;;10.17;8.20;;;5.70;32.40;;;;;;10395037;28;20234;-74
2021/03/02 03:13:01;;;;;;;10.40;8.50;;;5.70;32.40;;;;;;10400974;28;20645;-74
2021/03/02 03:18:08;;;;;;;9.37;8.00;;;5.60;32.40;;;;;;10397002;28;20229;-74
2021/03/02 03:23:10;;;;;;;8.97;8.03;;;5.60;32.20;;;;;;10399133;28;20232;-74
2021/03/02 03:28:16;;;;;;;12.20;8.90;;;5.50;32.00;;;;;;10400938;28;20241;-74
2021/03/02 03:33:20;;;;;;;9.17;8.17;;;5.50;32.30;;;;;;10400689;28;20238;-74
2021/03/02 03:38:22;;;;;;;9.20;8.13;;;5.50;32.20;;;;;;10403123;28;20229;-74
2021/03/02 03:43:25;;;;;;;8.47;7.43;;;5.40;31.80;;;;;;10398160;28;20693;-75
2021/03/02 03:48:28;;;;;;;10.80;8.67;;;5.40;32.00;;;;;;10407403;28;20241;-75
2021/03/02 03:53:34;;;;;;;10.00;8.47;;;5.40;32.00;;;;;;10399214;28;20230;-74
2021/03/02 03:58:39;;;;;;;10.27;8.43;;;5.30;32.20;;;;;;10400098;28;20780;-75
2021/03/02 04:03:43;;;;;;;8.63;7.63;;;5.30;33.10;;;;;;10395758;28;20225;-75
2021/03/02 04:08:46;;;;;;;8.93;7.90;;;5.20;32.10;;;;;;10394374;28;20248;-75
2021/03/02 04:13:49;;;;;;;10.63;8.20;;;5.20;32.20;;;;;;10400722;28;20230;-75
2021/03/02 04:18:51;;;;;;;9.67;7.97;;;5.20;32.20;;;;;;10396212;28;20617;-75
2021/03/02 04:23:53;;;;;;;8.80;6.97;;;5.20;31.90;;;;;;10397167;28;20605;-75
2021/03/02 04:28:56;;;;;;;10.60;8.00;;;5.20;31.80;;;;;;10405154;28;20260;-75
2021/03/02 04:33:58;;;;;;;9.37;7.57;;;5.20;31.90;;;;;;10397212;28;20351;-75
2021/03/02 04:39:01;;;;;;;9.17;7.50;;;5.20;31.80;;;;;;10397860;28;20214;-74
2021/03/02 04:44:05;;;;;;;8.83;7.47;;;5.10;31.70;;;;;;10397027;28;20218;-74
2021/03/02 04:49:07;;;;;;;8.90;7.77;;;5.10;31.90;;;;;;10398044;28;20236;-75
2021/03/02 04:54:09;;;;;;;8.83;7.67;;;5.10;31.70;;;;;;10396016;28;20227;-75
2021/03/02 04:59:12;;;;;;;8.47;7.27;;;5.10;31.80;;;;;;10396856;28;20222;-75
2021/03/02 05:04:15;;;;;;;7.03;5.87;;;5.00;31.90;;;;;;10397205;28;20225;-75
2021/03/02 05:09:17;;;;;;;8.27;7.00;;;5.00;31.70;;;;;;10391882;28;20248;-75
2021/03/02 05:14:20;;;;;;;8.50;6.00;;;5.00;31.70;;;;;;10391664;28;20244;-74
2021/03/02 05:19:22;;;;;;;8.60;6.30;;;5.00;31.90;;;;;;10398750;28;20229;-75
2021/03/02 05:24:24;;;;;;;9.67;7.17;;;4.90;31.70;;;;;;10396312;28;20657;-75
2021/03/02 05:29:27;;;;;;;7.13;6.30;;;4.90;31.70;;;;;;10395535;28;20597;-75
2021/03/02 05:34:30;;;;;;;8.23;6.37;;;4.90;32.00;;;;;;10396577;28;20230;-75
2021/03/02 05:39:32;;;;;;;7.23;6.50;;;4.90;31.80;;;;;;10396323;28;20789;-75
2021/03/02 05:44:35;;;;;;;6.67;5.93;;;4.80;31.70;;;;;;10396697;28;20232;-75
2021/03/02 05:49:37;;;;;;;11.83;8.37;;;4.80;31.80;;;;;;10395182;28;20222;-75
2021/03/02 05:54:40;;;;;;;8.47;7.27;;;4.70;31.60;;;;;;10397569;28;20233;-75
2021/03/02 05:59:44;;;;;;;8.57;6.50;;;4.70;31.80;;;;;;10396395;28;20244;-75
2021/03/02 06:04:49;;;;;;;7.03;5.50;;;4.60;31.90;;;;;;10396102;28;20233;-75
2021/03/02 06:09:51;;;;;;;8.43;7.13;;;4.50;32.00;;;;;;10394967;28;20234;-75
2021/03/02 06:15:04;;;;;;;8.07;6.67;;;4.50;31.90;;;;;;10400556;28;20234;-75
2021/03/02 06:20:18;;;;;;;7.60;6.80;;;4.50;32.40;;;;;;10397305;28;20232;-75
2021/03/02 06:25:27;;;;;;;8.60;6.57;;;4.40;31.80;;;;;;10393872;28;20229;-75
2021/03/02 06:30:30;;;;;;;9.90;6.67;;;4.40;32.40;;;;;;10398900;28;20530;-74
2021/03/02 06:35:35;;;;;;;7.23;5.53;;;4.40;32.10;;;;;;10394681;28;20240;-75
2021/03/02 06:40:40;;;;;;;9.00;7.23;;;4.40;32.10;;;;;;10397007;28;20237;-74
2021/03/02 06:45:50;;;;;;;8.60;7.07;;;4.40;32.40;;;;;;10391689;28;20218;-75
2021/03/02 06:50:53;;;;;;;8.97;7.87;;;4.40;33.00;;;;;;10395198;28;20305;-75
2021/03/02 06:56:11;;;;;;;9.03;7.60;;;4.40;32.70;;;;;;10409826;28;20234;-74
2021/03/02 07:01:14;;;;;;;10.00;8.30;;;4.30;33.90;;;;;;10403278;28;20229;-74
2021/03/02 07:06:34;;;;;;;12.17;10.17;;;4.40;33.10;;;;;;10405064;28;20226;-73
2021/03/02 07:11:37;;;;;;;17.97;11.53;;;4.40;33.10;;;;;;10396890;28;20792;-74
2021/03/02 07:16:43;;;;;;;17.20;13.63;;;4.50;33.30;;;;;;10402880;28;20241;-74
2021/03/02 07:21:50;;;;;;;15.57;10.80;;;4.50;33.80;;;;;;10405836;28;20226;-73
2021/03/02 07:26:54;;;;;;;13.00;8.57;;;4.60;33.90;;;;;;10402449;28;20221;-70
2021/03/02 07:31:59;;;;;;;16.60;10.03;;;4.70;33.90;;;;;;10407994;28;20295;-71
2021/03/02 07:37:02;;;;;;;13.53;9.10;;;4.70;34.60;;;;;;10402881;28;20225;-71
2021/03/02 07:42:22;;;;;;;13.30;9.40;;;4.80;34.30;;;;;;10406147;28;20229;-70
2021/03/02 07:47:42;;;;;;;9.63;8.27;;;4.90;35.80;;;;;;10396214;28;20754;-70
2021/03/02 07:52:45;;;;;;;10.13;8.90;;;5.00;36.70;;;;;;10397732;28;20223;-70
2021/03/02 07:57:49;;;;;;;12.13;10.00;;;5.10;34.60;;;;;;10399809;28;20233;-68
2021/03/02 08:03:32;;;;;;;18.27;10.17;;;5.20;35.20;;;;;;10401549;28;20221;-70
2021/03/02 08:08:37;;;;;;;13.90;10.83;;;5.40;37.10;;;;;;10395391;28;20709;-70
2021/03/02 08:13:41;;;;;;;13.50;10.90;;;5.60;36.20;;;;;;10399854;28;20256;-70
2021/03/02 08:18:45;;;;;;;14.93;11.67;;;5.80;36.00;;;;;;10398014;28;20236;-71
2021/03/02 08:24:01;;;;;;;15.23;12.10;;;6.10;36.10;;;;;;10401602;28;20592;-69
2021/03/02 08:29:12;;;;;;;16.90;12.93;;;6.40;36.50;;;;;;10401099;28;20225;-69
2021/03/02 08:34:16;;;;;;;17.10;13.20;;;6.70;36.80;;;;;;10401737;28;20634;-69
2021/03/02 08:39:21;;;;;;;15.80;13.07;;;7.00;36.90;;;;;;10401001;28;20230;-68
2021/03/02 08:44:25;;;;;;;13.77;11.77;;;7.30;37.00;;;;;;10402948;28;20251;-69
2021/03/02 08:49:27;;;;;;;13.83;12.13;;;7.60;37.00;;;;;;10398608;28;20575;-69
2021/03/02 08:54:30;;;;;;;13.10;11.43;;;7.90;36.80;;;;;;10400299;28;20230;-69
2021/03/02 08:59:34;;;;;;;14.07;11.70;;;8.20;36.80;;;;;;10397982;28;20383;-69
2021/03/02 09:04:36;;;;;;;14.03;11.93;;;8.60;36.80;;;;;;10397473;28;20226;-69
2021/03/02 09:09:39;;;;;;;14.47;11.07;;;8.90;36.50;;;;;;10389052;28;20222;-69
2021/03/02 09:14:41;;;;;;;14.10;12.00;;;9.30;36.30;;;;;;10414239;28;20226;-69
2021/03/02 09:19:43;;;;;;;14.13;12.03;;;9.60;36.10;;;;;;10398126;28;20602;-70
2021/03/02 09:24:48;;;;;;;15.17;12.63;;;9.90;35.80;;;;;;10397270;28;20224;-70
2021/03/02 09:29:52;;;;;;;14.87;12.43;;;10.20;34.80;;;;;;10400939;28;20577;-70
2021/03/02 09:34:56;;;;;;;13.70;11.90;;;10.40;34.50;;;;;;10399608;28;20229;-70
2021/03/02 09:40:03;;;;;;;13.17;11.80;;;10.70;34.50;;;;;;10399811;28;20316;-68
2021/03/02 09:45:11;;;;;;;15.40;11.60;;;10.90;34.70;;;;;;10399314;28;20742;-69
2021/03/02 09:50:14;;;;;;;13.47;11.80;;;11.20;35.20;;;;;;10400736;28;20241;-69
2021/03/02 09:55:23;;;;;;;13.53;12.13;;;11.40;34.00;;;;;;10398639;28;20235;-69
2021/03/02 10:00:28;;;;;;;13.70;12.20;;;11.60;34.00;;;;;;10393410;28;20308;-69
2021/03/02 10:05:56;;;;;;;13.77;12.27;;;11.80;33.60;;;;;;10396013;28;20692;-70
2021/03/02 10:11:01;;;;;;;14.73;11.77;;;11.90;33.60;;;;;;10388386;28;20222;-69
2021/03/02 10:16:26;;;;;;;14.20;11.57;;;12.10;33.50;;;;;;10395827;28;20299;-69
2021/03/02 10:21:30;;;;;;;13.20;11.80;;;12.30;33.40;;;;;;10395166;28;20280;-69
2021/03/02 10:26:35;;;;;;;13.80;12.17;;;12.50;33.50;;;;;;10395448;28;20248;-69
2021/03/02 10:31:37;;;;;;;13.67;11.73;;;12.70;33.30;;;;;;10400802;28;20690;-69
2021/03/02 10:36:42;;;;;;;12.20;10.90;;;12.90;33.00;;;;;;10400017;28;20222;-68
2021/03/02 10:41:46;;;;;;;15.00;11.20;;;13.10;33.20;;;;;;10403020;28;20694;-69
2021/03/02 10:46:49;;;;;;;12.30;11.00;;;13.20;32.60;;;;;;10403897;28;20313;-69
2021/03/02 10:51:51;;;;;;;12.33;10.83;;;13.40;32.50;;;;;;10406956;28;20721;-69
2021/03/02 10:56:54;;;;;;;11.63;10.43;;;13.60;32.40;;;;;;10398316;28;20618;-68
2021/03/02 11:01:57;;;;;;;11.73;10.57;;;13.70;32.20;;;;;;10396032;28;20824;-72
2021/03/02 11:07:00;;;;;;;11.93;10.70;;;13.80;31.90;;;;;;10397116;28;20699;-68
2021/03/02 11:12:04;;;;;;;13.33;11.93;;;13.90;32.70;;;;;;10400641;28;20317;-70
2021/03/02 11:17:06;;;;;;;11.07;9.87;;;14.20;32.00;;;;;;10403544;28;20233;-69
2021/03/02 11:22:08;;;;;;;12.57;10.60;;;14.40;32.00;;;;;;10393205;28;20231;-69
2021/03/02 11:27:11;;;;;;;11.30;10.20;;;14.50;31.70;;;;;;10395645;28;20234;-70
2021/03/02 11:32:14;;;;;;;13.57;10.67;;;14.60;31.80;;;;;;10399332;28;20824;-69
2021/03/02 11:37:16;;;;;;;12.83;10.97;;;14.70;31.80;;;;;;10381723;28;20230;-71
2021/03/02 11:42:19;;;;;;;11.67;10.43;;;14.80;31.50;;;;;;10394262;28;20657;-72
2021/03/02 11:47:22;;;;;;;10.87;9.80;;;14.80;31.10;;;;;;10392111;28;20586;-72
2021/03/02 11:52:24;;;;;;;11.63;10.40;;;15.00;31.50;;;;;;10394002;28;20329;-72
2021/03/02 11:57:28;;;;;;;11.43;10.33;;;15.00;31.60;;;;;;10391242;28;20235;-71
2021/03/02 12:02:30;;;;;;;12.03;10.83;;;15.20;31.30;;;;;;10394021;28;20767;-72
2021/03/02 12:07:33;;;;;;;11.63;10.43;;;15.30;31.70;;;;;;10399471;28;20585;-71
2021/03/02 12:12:36;;;;;;;11.67;10.07;;;15.30;30.40;;;;;;10404236;28;20221;-72
2021/03/02 12:17:39;;;;;;;11.83;10.57;;;15.30;30.80;;;;;;10403858;28;20233;-72
2021/03/02 12:22:41;;;;;;;11.30;9.83;;;15.40;30.30;;;;;;10399412;28;20222;-71
2021/03/02 12:27:44;;;;;;;12.73;9.00;;;15.40;30.30;;;;;;10406771;28;20239;-71
2021/03/02 12:32:46;;;;;;;10.60;9.53;;;15.50;30.00;;;;;;10395569;28;20689;-72
2021/03/02 12:37:49;;;;;;;12.23;10.37;;;15.50;30.40;;;;;;10423458;28;20642;-71
2021/03/02 12:42:52;;;;;;;10.20;9.00;;;15.60;30.10;;;;;;10398396;28;20236;-72
2021/03/02 12:47:54;;;;;;;11.30;10.17;;;15.70;29.90;;;;;;10395592;28;20234;-72
2021/03/02 12:52:56;;;;;;;11.00;9.73;;;15.70;29.80;;;;;;10399903;28;20232;-72
2021/03/02 12:57:59;;;;;;;10.17;9.20;;;15.80;29.80;;;;;;10401483;28;20236;-72
2021/03/02 13:03:02;;;;;;;11.07;9.97;;;15.80;29.60;;;;;;10399746;28;20222;-71
2021/03/02 13:08:07;;;;;;;10.97;9.60;;;15.90;29.80;;;;;;10395410;28;20230;-71
2021/03/02 13:13:10;;;;;;;9.63;8.63;;;15.90;29.40;;;;;;10400175;28;20230;-71
2021/03/02 13:18:13;;;;;;;12.17;10.47;;;16.00;29.20;;;;;;10400260;28;20256;-72
2021/03/02 13:23:15;;;;;;;11.10;9.60;;;16.10;29.30;;;;;;10401440;28;20250;-72
2021/03/02 13:28:18;;;;;;;11.07;9.77;;;16.10;29.30;;;;;;10402966;28;20540;-72
2021/03/02 13:33:24;;;;;;;11.87;9.00;;;16.20;28.90;;;;;;10398003;28;20237;-71
2021/03/02 13:38:28;;;;;;;10.53;9.43;;;16.30;28.40;;;;;;10402323;28;20237;-71
2021/03/02 13:43:34;;;;;;;11.20;9.90;;;16.30;28.90;;;;;;10409200;28;20237;-72
2021/03/02 13:48:37;;;;;;;10.37;9.37;;;16.30;28.70;;;;;;10399562;28;20229;-72
2021/03/02 13:53:41;;;;;;;10.80;9.77;;;16.30;28.90;;;;;;10397638;28;20233;-72
2021/03/02 13:58:46;;;;;;;10.33;9.23;;;16.30;28.70;;;;;;10398737;28;20228;-72
2021/03/02 14:03:51;;;;;;;10.73;8.97;;;16.40;28.40;;;;;;10402095;28;20225;-72
2021/03/02 14:08:54;;;;;;;9.83;8.87;;;16.40;28.50;;;;;;10400930;28;20237;-71
2021/03/02 14:13:57;;;;;;;10.20;9.20;;;16.40;28.70;;;;;;10399819;28;20232;-71
2021/03/02 14:19:00;;;;;;;10.40;9.43;;;16.40;28.40;;;;;;10401247;28;20589;-71
2021/03/02 14:24:04;;;;;;;10.27;9.07;;;16.50;29.20;;;;;;10400340;28;20220;-71
2021/03/02 14:29:08;;;;;;;10.50;9.37;;;16.50;28.50;;;;;;10402555;28;20222;-72
2021/03/02 14:34:10;;;;;;;10.43;9.33;;;16.60;28.40;;;;;;10407671;28;20226;-71
2021/03/02 14:39:13;;;;;;;9.80;8.80;;;16.60;28.50;;;;;;10409325;28;20226;-71
2021/03/02 14:44:19;;;;;;;9.97;8.97;;;16.60;28.50;;;;;;10404490;28;20325;-71
2021/03/02 14:49:40;;;;;;;10.80;9.63;;;16.60;28.10;;;;;;10399192;28;20598;-71
2021/03/02 14:54:43;;;;;;;9.93;8.93;;;16.60;28.00;;;;;;10398094;28;20320;-72
2021/03/02 14:59:48;;;;;;;9.43;8.40;;;16.60;28.30;;;;;;10396970;28;20340;-72
2021/03/02 15:04:50;;;;;;;10.50;9.40;;;16.60;28.00;;;;;;10393127;28;20686;-72
2021/03/02 15:09:54;;;;;;;10.03;9.03;;;16.60;28.10;;;;;;10402071;28;20327;-72
2021/03/02 15:14:58;;;;;;;9.53;8.27;;;16.60;28.20;;;;;;10387691;28;20604;-71
2021/03/02 15:20:00;;;;;;;8.67;7.87;;;16.60;28.10;;;;;;10401274;28;20336;-71
2021/03/02 15:25:03;;;;;;;9.67;8.47;;;16.60;28.20;;;;;;10397949;28;20221;-71
2021/03/02 15:30:08;;;;;;;9.13;8.17;;;16.60;28.20;;;;;;10399443;28;20229;-71
2021/03/02 15:35:12;;;;;;;8.50;7.53;;;16.60;27.80;;;;;;10399531;28;20729;-71
2021/03/02 15:40:16;;;;;;;10.43;9.30;;;16.70;28.20;;;;;;10397287;28;20372;-71
2021/03/02 15:45:20;;;;;;;11.27;10.13;;;16.60;28.00;;;;;;10400712;28;20236;-71
2021/03/02 15:50:23;;;;;;;12.50;9.30;;;16.60;27.90;;;;;;10394326;28;20225;-70
2021/03/02 15:55:26;;;;;;;11.07;9.50;;;16.60;28.30;;;;;;10403405;28;20785;-71
2021/03/02 16:00:31;;;;;;;11.43;10.23;;;16.60;28.20;;;;;;10397873;28;20236;-71
2021/03/02 16:05:36;;;;;;;11.83;9.80;;;16.60;28.00;;;;;;10396722;28;20233;-72
2021/03/02 16:10:41;;;;;;;13.77;9.63;;;16.60;27.90;;;;;;10391211;28;20591;-71
2021/03/02 16:15:46;;;;;;;11.33;9.20;;;16.60;28.00;;;;;;10396699;28;20222;-71
2021/03/02 16:20:54;;;;;;;10.60;8.57;;;16.50;27.90;;;;;;10399070;28;20259;-71
2021/03/02 16:25:58;;;;;;;9.07;8.17;;;16.50;27.90;;;;;;10392964;28;20229;-71
2021/03/02 16:31:02;;;;;;;10.40;9.30;;;16.40;27.80;;;;;;10402774;28;20230;-71
2021/03/02 16:36:05;;;;;;;9.67;8.50;;;16.30;27.80;;;;;;10394236;28;20344;-71
2021/03/02 16:41:09;;;;;;;9.80;8.63;;;16.30;27.80;;;;;;10402266;28;20244;-71
2021/03/02 16:46:12;;;;;;;9.67;8.67;;;16.20;27.70;;;;;;10392942;28;20233;-71
2021/03/02 16:51:19;;;;;;;9.57;8.57;;;16.10;27.70;;;;;;10397219;28;20709;-71
2021/03/02 16:56:23;;;;;;;12.87;9.93;;;16.00;27.90;;;;;;10397414;28;20225;-71
2021/03/02 17:01:30;;;;;;;10.67;8.50;;;15.90;28.10;;;;;;10396605;28;20229;-71
2021/03/02 17:06:34;;;;;;;11.60;8.77;;;15.80;28.10;;;;;;10393469;28;20222;-71
2021/03/02 17:11:36;;;;;;;9.20;8.30;;;15.70;28.20;;;;;;10399286;28;20230;-71
2021/03/02 17:16:40;;;;;;;9.00;8.10;;;15.60;28.10;;;;;;10407542;28;20229;-71
2021/03/02 17:21:43;;;;;;;11.57;10.37;;;15.50;28.20;;;;;;10393367;28;20256;-71
2021/03/02 17:26:45;;;;;;;11.77;10.20;;;15.30;28.10;;;;;;10400930;28;20218;-71
2021/03/02 17:31:49;;;;;;;11.47;10.00;;;15.10;28.00;;;;;;10398579;28;20239;-72
2021/03/02 17:36:51;;;;;;;19.37;11.43;;;14.90;28.10;;;;;;10398601;28;20597;-72
2021/03/02 17:41:55;;;;;;;17.57;10.43;;;14.80;28.20;;;;;;10398036;28;20222;-69
2021/03/02 17:46:58;;;;;;;11.97;10.80;;;14.60;28.20;;;;;;10396714;28;20229;-69
2021/03/02 17:52:01;;;;;;;11.67;9.50;;;14.50;28.20;;;;;;10403867;28;20222;-68
2021/03/02 17:57:07;;;;;;;10.00;9.00;;;14.40;28.30;;;;;;10400671;28;20277;-70
2021/03/02 18:02:10;;;;;;;13.57;9.43;;;14.20;28.30;;;;;;10399634;28;20221;-70
2021/03/02 18:07:14;;;;;;;9.80;8.60;;;14.10;28.30;;;;;;10390692;28;20710;-69
2021/03/02 18:12:18;;;;;;;10.93;9.53;;;14.00;28.30;;;;;;10401360;28;20594;-70
2021/03/02 18:17:21;;;;;;;12.23;8.30;;;13.80;28.20;;;;;;10399661;28;20228;-69
2021/03/02 18:22:23;;;;;;;11.23;8.90;;;13.70;28.20;;;;;;10396279;28;20226;-70
2021/03/02 18:27:25;;;;;;;12.40;10.13;;;13.50;28.30;;;;;;10401532;28;20240;-70
2021/03/02 18:32:29;;;;;;;12.80;11.07;;;13.40;28.40;;;;;;10400537;28;20611;-70
2021/03/02 18:37:31;;;;;;;11.27;10.03;;;13.30;28.40;;;;;;10394125;28;20237;-69
2021/03/02 18:42:34;;;;;;;12.53;11.17;;;13.20;28.40;;;;;;10393479;28;20232;-70
2021/03/02 18:47:37;;;;;;;13.27;11.87;;;13.00;28.40;;;;;;10399662;28;20239;-70
2021/03/02 18:52:39;;;;;;;17.77;12.83;;;12.90;28.50;;;;;;10402591;28;20257;-70
2021/03/02 18:57:41;;;;;;;15.30;13.80;;;12.80;28.50;;;;;;10401722;28;20628;-70
2021/03/02 19:02:44;;;;;;;13.83;12.33;;;12.70;28.50;;;;;;10402821;28;20224;-70
2021/03/02 19:07:47;;;;;;;15.00;12.70;;;12.50;28.60;;;;;;10394474;28;20328;-70
2021/03/02 19:12:49;;;;;;;15.33;11.87;;;12.40;28.50;;;;;;10393592;28;20233;-69
2021/03/02 19:17:52;;;;;;;14.53;11.10;;;12.30;28.60;;;;;;10397489;28;20225;-70
2021/03/02 19:22:55;;;;;;;14.40;12.63;;;12.20;28.60;;;;;;10392985;28;20236;-70
2021/03/02 19:27:57;;;;;;;12.60;10.27;;;12.10;28.60;;;;;;10396866;28;20304;-70
2021/03/02 19:33:01;;;;;;;10.57;9.57;;;12.00;28.60;;;;;;10396029;28;20229;-69
2021/03/02 19:38:03;;;;;;;19.30;12.93;;;11.90;28.70;;;;;;10392907;28;20233;-70
2021/03/02 19:43:05;;;;;;;13.37;10.60;;;11.80;28.70;;;;;;10391450;28;20321;-70
2021/03/02 19:48:09;;;;;;;17.13;14.27;;;11.70;28.80;;;;;;10402854;28;20233;-70
2021/03/02 19:53:12;;;;;;;20.00;16.23;;;11.60;28.80;;;;;;10407229;28;20299;-70
2021/03/02 19:58:14;;;;;;;15.30;11.73;;;11.40;28.70;;;;;;10396711;28;20319;-70
2021/03/02 20:03:17;;;;;;;24.07;18.47;;;11.20;28.60;;;;;;10421483;28;20580;-70
2021/03/02 20:08:19;;;;;;;19.90;13.97;;;11.00;29.00;;;;;;10441935;28;20784;-69
2021/03/02 20:13:22;;;;;;;12.97;11.50;;;10.80;28.90;;;;;;10414464;28;20241;-70
2021/03/02 20:18:25;;;;;;;13.37;11.97;;;10.60;28.70;;;;;;10395859;28;20239;-69
2021/03/02 20:23:27;;;;;;;16.77;13.80;;;10.50;28.90;;;;;;10409900;28;20236;-69
2021/03/02 20:28:29;;;;;;;13.27;11.40;;;10.30;28.80;;;;;;10444508;28;20602;-70
2021/03/02 20:33:32;;;;;;;20.03;16.83;;;10.30;28.90;;;;;;10413138;28;20229;-70
2021/03/02 20:38:34;;;;;;;21.03;16.40;;;10.20;29.00;;;;;;10421660;28;20245;-70
2021/03/02 20:43:36;;;;;;;23.17;18.97;;;10.20;29.10;;;;;;10419370;28;20590;-70
2021/03/02 20:48:39;;;;;;;19.23;16.53;;;10.20;29.20;;;;;;10402600;28;20232;-69
2021/03/02 20:53:42;;;;;;;19.23;15.93;;;10.10;29.20;;;;;;10406558;28;20227;-70
2021/03/02 20:58:44;;;;;;;15.87;14.17;;;9.90;29.80;;;;;;10390295;28;20237;-69
2021/03/02 21:03:48;;;;;;;16.10;13.87;;;9.70;29.80;;;;;;10402377;28;20222;-70
2021/03/02 21:08:50;;;;;;;18.20;15.30;;;9.50;30.00;;;;;;10400267;28;20228;-70
2021/03/02 21:13:53;;;;;;;17.63;14.90;;;9.40;30.10;;;;;;10399300;28;20222;-71
2021/03/02 21:18:56;;;;;;;17.87;14.83;;;9.30;30.10;;;;;;10417888;28;20595;-70
2021/03/02 21:23:58;;;;;;;16.17;13.93;;;9.20;30.30;;;;;;10397170;28;20312;-70
2021/03/02 21:29:00;;;;;;;13.67;12.27;;;9.20;30.30;;;;;;10400821;28;20610;-71
2021/03/02 21:34:04;;;;;;;17.60;14.10;;;9.10;30.20;;;;;;10392845;28;20320;-70
2021/03/02 21:39:06;;;;;;;18.17;15.37;;;9.10;30.50;;;;;;10390016;28;20644;-70
2021/03/02 21:44:08;;;;;;;17.90;14.80;;;9.00;30.40;;;;;;10395937;28;20240;-71
2021/03/02 21:49:11;;;;;;;14.63;12.27;;;9.00;30.30;;;;;;10392119;28;20718;-71
2021/03/02 21:54:13;;;;;;;18.93;13.73;;;8.80;30.30;;;;;;10386269;28;20741;-71
2021/03/02 21:59:16;;;;;;;18.70;13.13;;;8.70;30.40;;;;;;10391293;28;20241;-71
2021/03/02 22:04:19;;;;;;;14.77;12.93;;;8.70;30.50;;;;;;10395887;28;20682;-70
2021/03/02 22:09:22;;;;;;;15.03;12.73;;;8.60;30.60;;;;;;10395275;28;20239;-72
2021/03/02 22:14:24;;;;;;;17.87;12.80;;;8.60;30.50;;;;;;10391960;28;20334;-71
2021/03/02 22:19:28;;;;;;;15.17;11.80;;;8.40;30.20;;;;;;10392799;28;20247;-71
2021/03/02 22:24:30;;;;;;;11.57;9.27;;;8.30;30.60;;;;;;10395431;28;20535;-71
2021/03/02 22:29:32;;;;;;;14.87;12.57;;;8.10;30.60;;;;;;10399538;28;20222;-71
2021/03/02 22:34:35;;;;;;;13.63;11.37;;;8.10;31.00;;;;;;10396510;28;20595;-71
2021/03/02 22:39:38;;;;;;;13.67;11.77;;;8.00;31.00;;;;;;10396654;28;20225;-71
2021/03/02 22:44:40;;;;;;;14.90;11.70;;;8.00;31.00;;;;;;10399460;28;20252;-71
2021/03/02 22:49:43;;;;;;;18.33;13.77;;;8.00;31.10;;;;;;10403089;28;20217;-71
2021/03/02 22:54:45;;;;;;;12.93;10.70;;;8.00;31.10;;;;;;10400564;28;20225;-71
2021/03/02 22:59:47;;;;;;;15.57;11.70;;;8.00;30.90;;;;;;10404071;28;20245;-71
2021/03/02 23:04:50;;;;;;;11.37;10.13;;;8.00;31.00;;;;;;10398671;28;20236;-71
2021/03/02 23:09:53;;;;;;;13.53;11.83;;;7.90;30.90;;;;;;10401406;28;20241;-71
2021/03/02 23:14:55;;;;;;;11.27;9.63;;;7.90;31.10;;;;;;10397614;28;20585;-71
2021/03/02 23:19:58;;;;;;;9.90;8.40;;;7.80;31.00;;;;;;10403408;28;20233;-71
2021/03/02 23:25:00;;;;;;;13.30;11.27;;;7.70;31.10;;;;;;10405123;28;20225;-71
2021/03/02 23:30:03;;;;;;;12.57;10.70;;;7.70;31.10;;;;;;10406262;28;20222;-71
2021/03/02 23:35:08;;;;;;;17.87;15.63;;;7.60;31.10;;;;;;10400830;28;20702;-71
2021/03/02 23:40:11;;;;;;;19.30;14.03;;;7.60;31.30;;;;;;10406645;28;20237;-72
2021/03/02 23:45:14;;;;;;;16.20;14.10;;;7.50;31.10;;;;;;10403085;28;20232;-72
2021/03/02 23:50:17;;;;;;;18.47;13.53;;;7.50;31.20;;;;;;10403161;28;20237;-72
2021/03/02 23:55:19;;;;;;;13.83;11.90;;;7.40;31.10;;;;;;10400201;28;20399;-72
